Bestevaer 2 — PG2801 — position and weather

sailwx.info

Track history (hours):
 
Tides and Currents Weather Stations Pressure Air Temp Water Temp Dewpoint Dewpoint Depression Visibility Wind Speed Wind Dir Waves Ship Positions

Bestevaer 2

Last reported at 2014-Jul-15 16:28 UTC. Time now 2014-Nov-28 18:16 UTC.
Position N 37°03' W 009°01'.
Warning: this ship's position is months out of date.

Length 16 m.

Type: Sailing vessel. MMSI: 244030672.

Date/timePositionNaut miles runAvg speedWind from/ knotsBaromVisibWave heightAir tempDewpointWater temp
2014-Jul-15 16:28N 37°03' W 009°01'32 6.1
2014-Jul-15 11:18N 37°34' W 008°56'6 7.3
2014-Jul-15 10:29N 37°40' W 008°55'7 7.6
2014-Jul-15 09:33N 37°47' W 008°54'6 6.1
2014-Jul-15 08:33N 37°53' W 008°52'4 0.2
2014-Jul-14 14:32N 37°57' W 008°52'0 0.0
2014-Jul-14 13:32N 37°57' W 008°52'0 0.0
2014-Jul-14 12:32N 37°57' W 008°52'0 0.0
2014-Jul-14 11:32N 37°57' W 008°52'0 0.0
2014-Jul-14 10:32N 37°57' W 008°52'  
2014-Jul-11 20:32N 37°57' W 008°52'0 0.0
2014-Jul-11 19:32N 37°57' W 008°52'0 0.0
2014-Jul-11 18:32N 37°57' W 008°52'0 0.1
2014-Jul-11 17:32N 37°57' W 008°52'5 5.2
2014-Jul-11 16:33N 37°57' W 008°59'7 7.1
2014-Jul-11 15:33N 38°01' W 009°07'7 7.1
2014-Jul-11 14:33N 38°07' W 009°10'7 6.9
2014-Jul-11 13:33N 38°13' W 009°13'8 6.4
2014-Jul-11 12:15N 38°21' W 009°16'6 5.9
2014-Jul-11 11:14N 38°27' W 009°20'16 4.1
2014-Jul-11 07:24N 38°42' W 009°25'  
Track history (hours):
 
Tides and Currents Weather Stations Pressure Air Temp Water Temp Dewpoint Dewpoint Depression Visibility Wind Speed Wind Dir Waves Ship Positions

Bestevaer 2

Last reported at 2014-Jul-15 16:28 UTC. Time now 2014-Nov-28 18:16 UTC.
Position N 37°03' W 009°01'.
Warning: this ship's position is months out of date.

Length 16 m.

Type: Sailing vessel. MMSI: 244030672.

Date/timePositionNaut miles runAvg speedWind from/ knotsBaromVisibWave heightAir tempDewpointWater temp
2014-Jul-15 16:28N 37°03' W 009°01'32 6.1
2014-Jul-15 11:18N 37°34' W 008°56'6 7.3
2014-Jul-15 10:29N 37°40' W 008°55'7 7.6
2014-Jul-15 09:33N 37°47' W 008°54'6 6.1
2014-Jul-15 08:33N 37°53' W 008°52'4 0.2
2014-Jul-14 14:32N 37°57' W 008°52'0 0.0
2014-Jul-14 13:32N 37°57' W 008°52'0 0.0
2014-Jul-14 12:32N 37°57' W 008°52'0 0.0
2014-Jul-14 11:32N 37°57' W 008°52'0 0.0
2014-Jul-14 10:32N 37°57' W 008°52'  
2014-Jul-11 20:32N 37°57' W 008°52'0 0.0
2014-Jul-11 19:32N 37°57' W 008°52'0 0.0
2014-Jul-11 18:32N 37°57' W 008°52'0 0.1
2014-Jul-11 17:32N 37°57' W 008°52'5 5.2
2014-Jul-11 16:33N 37°57' W 008°59'7 7.1
2014-Jul-11 15:33N 38°01' W 009°07'7 7.1
2014-Jul-11 14:33N 38°07' W 009°10'7 6.9
2014-Jul-11 13:33N 38°13' W 009°13'8 6.4
2014-Jul-11 12:15N 38°21' W 009°16'6 5.9
2014-Jul-11 11:14N 38°27' W 009°20'16 4.1
2014-Jul-11 07:24N 38°42' W 009°25'  

Dump ship's entire track history